sensor_id;sensor_type;location;lat;lon;timestamp;P1;durP1;ratioP1;P2;durP2;ratioP2
30072;SDS011;16897;52.422;13.678;2022-10-31T00:00:29;5.70;;;4.57;;
30072;SDS011;16897;52.422;13.678;2022-10-31T00:04:31;7.47;;;4.88;;
30072;SDS011;16897;52.422;13.678;2022-10-31T00:08:33;6.20;;;4.82;;
30072;SDS011;16897;52.422;13.678;2022-10-31T00:12:35;5.88;;;4.68;;
30072;SDS011;16897;52.422;13.678;2022-10-31T00:16:37;6.50;;;4.90;;
30072;SDS011;16897;52.422;13.678;2022-10-31T00:20:38;7.35;;;5.22;;
30072;SDS011;16897;52.422;13.678;2022-10-31T00:24:40;6.00;;;4.57;;
30072;SDS011;16897;52.422;13.678;2022-10-31T00:28:42;8.73;;;5.32;;
30072;SDS011;16897;52.422;13.678;2022-10-31T00:32:44;7.18;;;4.53;;
30072;SDS011;16897;52.422;13.678;2022-10-31T00:36:46;5.50;;;4.63;;
30072;SDS011;16897;52.422;13.678;2022-10-31T00:40:48;8.80;;;5.05;;
30072;SDS011;16897;52.422;13.678;2022-10-31T00:44:50;5.40;;;4.45;;
30072;SDS011;16897;52.422;13.678;2022-10-31T00:48:52;8.00;;;5.07;;
30072;SDS011;16897;52.422;13.678;2022-10-31T00:52:54;7.75;;;5.78;;
30072;SDS011;16897;52.422;13.678;2022-10-31T00:56:56;9.50;;;5.13;;
30072;SDS011;16897;52.422;13.678;2022-10-31T01:00:59;6.75;;;4.68;;
30072;SDS011;16897;52.422;13.678;2022-10-31T01:05:01;6.63;;;4.50;;
30072;SDS011;16897;52.422;13.678;2022-10-31T01:09:02;7.68;;;4.43;;
30072;SDS011;16897;52.422;13.678;2022-10-31T01:13:04;4.90;;;4.18;;
30072;SDS011;16897;52.422;13.678;2022-10-31T01:17:06;5.53;;;5.00;;
30072;SDS011;16897;52.422;13.678;2022-10-31T01:21:09;5.03;;;4.47;;
30072;SDS011;16897;52.422;13.678;2022-10-31T01:25:23;6.82;;;4.75;;
30072;SDS011;16897;52.422;13.678;2022-10-31T01:29:25;7.05;;;4.47;;
30072;SDS011;16897;52.422;13.678;2022-10-31T01:33:26;4.55;;;4.15;;
30072;SDS011;16897;52.422;13.678;2022-10-31T01:37:28;6.18;;;4.93;;
30072;SDS011;16897;52.422;13.678;2022-10-31T01:41:32;5.47;;;4.30;;
30072;SDS011;16897;52.422;13.678;2022-10-31T01:45:38;5.85;;;4.88;;
30072;SDS011;16897;52.422;13.678;2022-10-31T01:53:50;4.95;;;4.30;;
30072;SDS011;16897;52.422;13.678;2022-10-31T01:57:57;5.82;;;4.80;;
30072;SDS011;16897;52.422;13.678;2022-10-31T02:02:13;6.60;;;4.22;;
30072;SDS011;16897;52.422;13.678;2022-10-31T02:06:26;5.68;;;4.25;;
30072;SDS011;16897;52.422;13.678;2022-10-31T02:10:50;6.53;;;4.60;;
30072;SDS011;16897;52.422;13.678;2022-10-31T02:14:52;7.20;;;4.22;;
30072;SDS011;16897;52.422;13.678;2022-10-31T02:18:54;5.32;;;3.85;;
30072;SDS011;16897;52.422;13.678;2022-10-31T02:36:19;6.03;;;4.13;;
30072;SDS011;16897;52.422;13.678;2022-10-31T02:40:56;4.95;;;4.40;;
30072;SDS011;16897;52.422;13.678;2022-10-31T02:45:14;5.70;;;4.20;;
30072;SDS011;16897;52.422;13.678;2022-10-31T02:49:34;4.57;;;4.13;;
30072;SDS011;16897;52.422;13.678;2022-10-31T02:53:44;5.80;;;3.80;;
30072;SDS011;16897;52.422;13.678;2022-10-31T02:57:46;6.90;;;4.32;;
30072;SDS011;16897;52.422;13.678;2022-10-31T03:06:30;4.60;;;3.70;;
30072;SDS011;16897;52.422;13.678;2022-10-31T03:14:59;6.35;;;4.60;;
30072;SDS011;16897;52.422;13.678;2022-10-31T03:19:28;8.02;;;3.97;;
30072;SDS011;16897;52.422;13.678;2022-10-31T03:23:39;4.15;;;3.65;;
30072;SDS011;16897;52.422;13.678;2022-10-31T03:27:42;5.32;;;4.65;;
30072;SDS011;16897;52.422;13.678;2022-10-31T03:31:47;4.80;;;3.88;;
30072;SDS011;16897;52.422;13.678;2022-10-31T03:35:59;8.55;;;4.07;;
30072;SDS011;16897;52.422;13.678;2022-10-31T03:40:06;5.90;;;4.18;;
30072;SDS011;16897;52.422;13.678;2022-10-31T03:44:12;4.10;;;3.70;;
30072;SDS011;16897;52.422;13.678;2022-10-31T03:48:22;6.53;;;4.30;;
30072;SDS011;16897;52.422;13.678;2022-10-31T03:56:37;5.07;;;3.75;;
30072;SDS011;16897;52.422;13.678;2022-10-31T04:00:56;5.55;;;4.18;;
30072;SDS011;16897;52.422;13.678;2022-10-31T04:05:01;5.88;;;3.92;;
30072;SDS011;16897;52.422;13.678;2022-10-31T04:09:05;5.68;;;3.90;;
30072;SDS011;16897;52.422;13.678;2022-10-31T04:13:11;5.15;;;3.55;;
30072;SDS011;16897;52.422;13.678;2022-10-31T04:17:22;4.50;;;4.07;;
30072;SDS011;16897;52.422;13.678;2022-10-31T04:21:30;5.47;;;3.75;;
30072;SDS011;16897;52.422;13.678;2022-10-31T04:25:33;4.00;;;3.60;;
30072;SDS011;16897;52.422;13.678;2022-10-31T04:29:35;6.70;;;4.50;;
30072;SDS011;16897;52.422;13.678;2022-10-31T04:33:37;5.70;;;3.72;;
30072;SDS011;16897;52.422;13.678;2022-10-31T04:37:39;6.53;;;5.13;;
30072;SDS011;16897;52.422;13.678;2022-10-31T04:41:41;6.32;;;4.30;;
30072;SDS011;16897;52.422;13.678;2022-10-31T04:45:48;5.05;;;3.60;;
30072;SDS011;16897;52.422;13.678;2022-10-31T04:49:50;4.93;;;3.72;;
30072;SDS011;16897;52.422;13.678;2022-10-31T04:53:51;4.88;;;3.92;;
30072;SDS011;16897;52.422;13.678;2022-10-31T04:58:02;6.10;;;3.90;;
30072;SDS011;16897;52.422;13.678;2022-10-31T05:02:04;5.65;;;4.30;;
30072;SDS011;16897;52.422;13.678;2022-10-31T05:06:18;6.70;;;3.90;;
30072;SDS011;16897;52.422;13.678;2022-10-31T05:10:21;5.45;;;4.72;;
30072;SDS011;16897;52.422;13.678;2022-10-31T05:14:32;3.97;;;3.60;;
30072;SDS011;16897;52.422;13.678;2022-10-31T05:18:52;3.67;;;3.38;;
30072;SDS011;16897;52.422;13.678;2022-10-31T05:23:09;4.18;;;3.55;;
30072;SDS011;16897;52.422;13.678;2022-10-31T05:27:12;4.13;;;3.75;;
30072;SDS011;16897;52.422;13.678;2022-10-31T05:31:13;6.38;;;3.60;;
30072;SDS011;16897;52.422;13.678;2022-10-31T05:35:27;5.88;;;3.90;;
30072;SDS011;16897;52.422;13.678;2022-10-31T05:39:50;4.05;;;3.65;;
30072;SDS011;16897;52.422;13.678;2022-10-31T05:43:53;6.80;;;3.65;;
30072;SDS011;16897;52.422;13.678;2022-10-31T05:48:00;5.43;;;4.10;;
30072;SDS011;16897;52.422;13.678;2022-10-31T05:52:21;7.82;;;3.90;;
30072;SDS011;16897;52.422;13.678;2022-10-31T05:56:30;5.82;;;4.57;;
30072;SDS011;16897;52.422;13.678;2022-10-31T06:00:32;5.35;;;4.22;;
30072;SDS011;16897;52.422;13.678;2022-10-31T06:04:41;6.50;;;4.20;;
30072;SDS011;16897;52.422;13.678;2022-10-31T06:08:43;8.35;;;5.40;;
30072;SDS011;16897;52.422;13.678;2022-10-31T06:12:50;6.65;;;4.57;;
30072;SDS011;16897;52.422;13.678;2022-10-31T06:16:57;4.05;;;3.65;;
30072;SDS011;16897;52.422;13.678;2022-10-31T06:21:17;6.63;;;4.30;;
30072;SDS011;16897;52.422;13.678;2022-10-31T06:25:19;6.45;;;3.95;;
30072;SDS011;16897;52.422;13.678;2022-10-31T06:29:23;7.28;;;4.45;;
30072;SDS011;16897;52.422;13.678;2022-10-31T06:33:45;8.25;;;4.80;;
30072;SDS011;16897;52.422;13.678;2022-10-31T06:37:51;6.45;;;4.35;;
30072;SDS011;16897;52.422;13.678;2022-10-31T06:42:05;7.13;;;3.88;;
30072;SDS011;16897;52.422;13.678;2022-10-31T06:46:08;7.32;;;5.07;;
30072;SDS011;16897;52.422;13.678;2022-10-31T06:50:17;3.92;;;3.45;;
30072;SDS011;16897;52.422;13.678;2022-10-31T06:54:21;4.38;;;3.97;;
30072;SDS011;16897;52.422;13.678;2022-10-31T06:58:23;6.38;;;4.13;;
30072;SDS011;16897;52.422;13.678;2022-10-31T07:02:27;5.82;;;4.07;;
30072;SDS011;16897;52.422;13.678;2022-10-31T07:06:30;5.68;;;4.05;;
30072;SDS011;16897;52.422;13.678;2022-10-31T07:10:33;9.80;;;4.70;;
30072;SDS011;16897;52.422;13.678;2022-10-31T07:14:38;5.78;;;5.18;;
30072;SDS011;16897;52.422;13.678;2022-10-31T07:18:40;6.63;;;5.38;;
30072;SDS011;16897;52.422;13.678;2022-10-31T07:22:45;7.38;;;4.90;;
30072;SDS011;16897;52.422;13.678;2022-10-31T07:26:47;5.25;;;4.50;;
30072;SDS011;16897;52.422;13.678;2022-10-31T07:30:51;7.35;;;4.78;;
30072;SDS011;16897;52.422;13.678;2022-10-31T07:34:55;7.38;;;5.03;;
30072;SDS011;16897;52.422;13.678;2022-10-31T07:39:03;6.55;;;5.18;;
30072;SDS011;16897;52.422;13.678;2022-10-31T07:43:08;7.63;;;5.13;;
30072;SDS011;16897;52.422;13.678;2022-10-31T07:47:42;7.57;;;4.63;;
30072;SDS011;16897;52.422;13.678;2022-10-31T07:52:06;6.70;;;4.53;;
30072;SDS011;16897;52.422;13.678;2022-10-31T07:56:37;7.05;;;4.57;;
30072;SDS011;16897;52.422;13.678;2022-10-31T08:00:41;6.25;;;4.45;;
30072;SDS011;16897;52.422;13.678;2022-10-31T08:04:48;7.82;;;4.32;;
30072;SDS011;16897;52.422;13.678;2022-10-31T08:09:16;8.05;;;5.10;;
30072;SDS011;16897;52.422;13.678;2022-10-31T08:13:19;8.35;;;5.25;;
30072;SDS011;16897;52.422;13.678;2022-10-31T08:17:24;11.88;;;6.00;;
30072;SDS011;16897;52.422;13.678;2022-10-31T08:21:31;6.47;;;5.47;;
30072;SDS011;16897;52.422;13.678;2022-10-31T08:25:35;7.57;;;6.03;;
30072;SDS011;16897;52.422;13.678;2022-10-31T08:29:37;13.68;;;6.82;;
30072;SDS011;16897;52.422;13.678;2022-10-31T08:33:39;10.48;;;7.10;;
30072;SDS011;16897;52.422;13.678;2022-10-31T08:38:08;9.73;;;7.13;;
30072;SDS011;16897;52.422;13.678;2022-10-31T08:42:12;11.75;;;6.90;;
30072;SDS011;16897;52.422;13.678;2022-10-31T08:46:14;9.43;;;6.90;;
30072;SDS011;16897;52.422;13.678;2022-10-31T08:50:18;9.30;;;7.30;;
30072;SDS011;16897;52.422;13.678;2022-10-31T08:54:21;13.27;;;7.38;;
30072;SDS011;16897;52.422;13.678;2022-10-31T08:58:29;10.68;;;7.18;;
30072;SDS011;16897;52.422;13.678;2022-10-31T09:02:35;14.93;;;7.53;;
30072;SDS011;16897;52.422;13.678;2022-10-31T09:06:39;13.05;;;7.63;;
30072;SDS011;16897;52.422;13.678;2022-10-31T09:10:41;9.90;;;6.78;;
30072;SDS011;16897;52.422;13.678;2022-10-31T09:14:43;11.35;;;7.65;;
30072;SDS011;16897;52.422;13.678;2022-10-31T09:18:59;9.73;;;7.32;;
30072;SDS011;16897;52.422;13.678;2022-10-31T09:23:02;10.02;;;7.57;;
30072;SDS011;16897;52.422;13.678;2022-10-31T09:27:12;13.15;;;8.40;;
30072;SDS011;16897;52.422;13.678;2022-10-31T09:31:18;13.27;;;8.27;;
30072;SDS011;16897;52.422;13.678;2022-10-31T09:35:37;13.95;;;8.80;;
30072;SDS011;16897;52.422;13.678;2022-10-31T09:39:39;12.43;;;8.15;;
30072;SDS011;16897;52.422;13.678;2022-10-31T09:57:10;11.48;;;6.68;;
30072;SDS011;16897;52.422;13.678;2022-10-31T10:01:33;14.60;;;8.43;;
30072;SDS011;16897;52.422;13.678;2022-10-31T10:10:53;13.00;;;8.05;;
30072;SDS011;16897;52.422;13.678;2022-10-31T10:20:30;16.73;;;9.18;;
30072;SDS011;16897;52.422;13.678;2022-10-31T10:28:54;16.90;;;9.40;;
30072;SDS011;16897;52.422;13.678;2022-10-31T10:33:04;14.95;;;10.10;;
30072;SDS011;16897;52.422;13.678;2022-10-31T10:37:25;14.40;;;8.90;;
30072;SDS011;16897;52.422;13.678;2022-10-31T10:41:44;11.40;;;8.80;;
30072;SDS011;16897;52.422;13.678;2022-10-31T10:50:47;14.77;;;9.73;;
30072;SDS011;16897;52.422;13.678;2022-10-31T10:54:59;13.45;;;10.55;;
30072;SDS011;16897;52.422;13.678;2022-10-31T10:59:29;14.70;;;9.65;;
30072;SDS011;16897;52.422;13.678;2022-10-31T11:03:31;16.98;;;10.73;;
30072;SDS011;16897;52.422;13.678;2022-10-31T11:07:37;17.30;;;10.10;;
30072;SDS011;16897;52.422;13.678;2022-10-31T11:11:40;19.98;;;10.68;;
30072;SDS011;16897;52.422;13.678;2022-10-31T11:24:19;11.65;;;8.52;;
30072;SDS011;16897;52.422;13.678;2022-10-31T11:28:23;18.13;;;10.70;;
30072;SDS011;16897;52.422;13.678;2022-10-31T11:32:26;12.15;;;8.15;;
30072;SDS011;16897;52.422;13.678;2022-10-31T11:36:30;13.95;;;9.27;;
30072;SDS011;16897;52.422;13.678;2022-10-31T11:40:36;14.07;;;8.90;;
30072;SDS011;16897;52.422;13.678;2022-10-31T11:44:40;13.02;;;9.80;;
30072;SDS011;16897;52.422;13.678;2022-10-31T11:48:48;15.73;;;9.20;;
30072;SDS011;16897;52.422;13.678;2022-10-31T11:52:51;14.88;;;11.05;;
30072;SDS011;16897;52.422;13.678;2022-10-31T11:56:55;14.27;;;10.13;;
30072;SDS011;16897;52.422;13.678;2022-10-31T12:00:57;16.33;;;10.30;;
30072;SDS011;16897;52.422;13.678;2022-10-31T12:05:04;20.55;;;10.73;;
30072;SDS011;16897;52.422;13.678;2022-10-31T12:09:34;14.35;;;9.75;;
30072;SDS011;16897;52.422;13.678;2022-10-31T12:27:27;16.23;;;9.95;;
30072;SDS011;16897;52.422;13.678;2022-10-31T12:37:08;12.65;;;8.90;;
30072;SDS011;16897;52.422;13.678;2022-10-31T12:41:48;15.52;;;9.48;;
30072;SDS011;16897;52.422;13.678;2022-10-31T12:46:07;13.80;;;8.63;;
30072;SDS011;16897;52.422;13.678;2022-10-31T12:59:41;14.90;;;9.77;;
30072;SDS011;16897;52.422;13.678;2022-10-31T13:08:53;15.60;;;8.90;;
30072;SDS011;16897;52.422;13.678;2022-10-31T13:13:35;16.48;;;10.35;;
30072;SDS011;16897;52.422;13.678;2022-10-31T13:17:55;11.40;;;9.07;;
30072;SDS011;16897;52.422;13.678;2022-10-31T13:26:13;12.98;;;8.35;;
30072;SDS011;16897;52.422;13.678;2022-10-31T13:30:23;20.13;;;10.25;;
30072;SDS011;16897;52.422;13.678;2022-10-31T13:38:42;18.02;;;10.30;;
30072;SDS011;16897;52.422;13.678;2022-10-31T13:43:20;13.32;;;10.05;;
30072;SDS011;16897;52.422;13.678;2022-10-31T13:52:16;16.88;;;10.05;;
30072;SDS011;16897;52.422;13.678;2022-10-31T13:56:28;17.17;;;10.73;;
30072;SDS011;16897;52.422;13.678;2022-10-31T14:00:33;44.42;;;14.30;;
30072;SDS011;16897;52.422;13.678;2022-10-31T14:04:37;43.72;;;12.82;;
30072;SDS011;16897;52.422;13.678;2022-10-31T14:08:50;36.35;;;11.02;;
30072;SDS011;16897;52.422;13.678;2022-10-31T14:12:54;41.85;;;11.57;;
30072;SDS011;16897;52.422;13.678;2022-10-31T14:17:17;53.70;;;12.60;;
30072;SDS011;16897;52.422;13.678;2022-10-31T14:25:37;13.93;;;7.47;;
30072;SDS011;16897;52.422;13.678;2022-10-31T14:29:39;11.85;;;7.80;;
30072;SDS011;16897;52.422;13.678;2022-10-31T14:33:40;23.15;;;7.63;;
30072;SDS011;16897;52.422;13.678;2022-10-31T14:51:14;7.43;;;5.80;;
30072;SDS011;16897;52.422;13.678;2022-10-31T14:55:23;11.90;;;6.35;;
30072;SDS011;16897;52.422;13.678;2022-10-31T14:59:27;13.57;;;6.28;;
30072;SDS011;16897;52.422;13.678;2022-10-31T15:03:33;9.07;;;6.55;;
30072;SDS011;16897;52.422;13.678;2022-10-31T15:07:56;7.72;;;5.80;;
30072;SDS011;16897;52.422;13.678;2022-10-31T15:11:59;10.65;;;5.40;;
30072;SDS011;16897;52.422;13.678;2022-10-31T15:16:27;18.05;;;7.80;;
30072;SDS011;16897;52.422;13.678;2022-10-31T15:20:36;18.05;;;7.70;;
30072;SDS011;16897;52.422;13.678;2022-10-31T15:24:47;12.98;;;7.53;;
30072;SDS011;16897;52.422;13.678;2022-10-31T15:29:00;14.10;;;8.63;;
30072;SDS011;16897;52.422;13.678;2022-10-31T15:33:20;13.02;;;7.82;;
30072;SDS011;16897;52.422;13.678;2022-10-31T15:37:25;15.80;;;7.70;;
30072;SDS011;16897;52.422;13.678;2022-10-31T15:45:48;11.85;;;6.43;;
30072;SDS011;16897;52.422;13.678;2022-10-31T15:49:54;11.20;;;6.38;;
30072;SDS011;16897;52.422;13.678;2022-10-31T15:53:58;11.70;;;6.72;;
30072;SDS011;16897;52.422;13.678;2022-10-31T15:58:02;8.23;;;5.95;;
30072;SDS011;16897;52.422;13.678;2022-10-31T16:02:12;10.48;;;6.50;;
30072;SDS011;16897;52.422;13.678;2022-10-31T16:06:19;12.52;;;7.45;;
30072;SDS011;16897;52.422;13.678;2022-10-31T16:10:22;7.35;;;5.55;;
30072;SDS011;16897;52.422;13.678;2022-10-31T16:14:27;6.88;;;6.05;;
30072;SDS011;16897;52.422;13.678;2022-10-31T16:18:39;11.55;;;7.10;;
30072;SDS011;16897;52.422;13.678;2022-10-31T16:22:41;9.75;;;7.15;;
30072;SDS011;16897;52.422;13.678;2022-10-31T16:26:51;11.20;;;8.20;;
30072;SDS011;16897;52.422;13.678;2022-10-31T16:30:59;14.32;;;8.15;;
30072;SDS011;16897;52.422;13.678;2022-10-31T16:39:11;9.00;;;5.90;;
30072;SDS011;16897;52.422;13.678;2022-10-31T16:43:15;7.78;;;5.45;;
30072;SDS011;16897;52.422;13.678;2022-10-31T16:51:21;6.15;;;5.10;;
30072;SDS011;16897;52.422;13.678;2022-10-31T16:55:23;8.05;;;6.00;;
30072;SDS011;16897;52.422;13.678;2022-10-31T16:59:24;7.57;;;6.28;;
30072;SDS011;16897;52.422;13.678;2022-10-31T17:03:27;9.05;;;6.78;;
30072;SDS011;16897;52.422;13.678;2022-10-31T17:07:29;8.48;;;6.13;;
30072;SDS011;16897;52.422;13.678;2022-10-31T17:11:30;11.95;;;7.57;;
30072;SDS011;16897;52.422;13.678;2022-10-31T17:15:36;7.78;;;5.63;;
30072;SDS011;16897;52.422;13.678;2022-10-31T17:19:41;8.50;;;6.15;;
30072;SDS011;16897;52.422;13.678;2022-10-31T17:23:43;10.18;;;5.63;;
30072;SDS011;16897;52.422;13.678;2022-10-31T17:27:45;8.88;;;6.25;;
30072;SDS011;16897;52.422;13.678;2022-10-31T17:31:46;8.00;;;5.80;;
30072;SDS011;16897;52.422;13.678;2022-10-31T17:35:49;8.57;;;6.55;;
30072;SDS011;16897;52.422;13.678;2022-10-31T17:39:51;7.95;;;6.43;;
30072;SDS011;16897;52.422;13.678;2022-10-31T17:43:56;10.50;;;8.48;;
30072;SDS011;16897;52.422;13.678;2022-10-31T17:47:58;11.52;;;8.30;;
30072;SDS011;16897;52.422;13.678;2022-10-31T17:52:00;13.48;;;7.78;;
30072;SDS011;16897;52.422;13.678;2022-10-31T17:56:02;12.13;;;7.78;;
30072;SDS011;16897;52.422;13.678;2022-10-31T18:00:10;9.13;;;7.07;;
30072;SDS011;16897;52.422;13.678;2022-10-31T18:04:15;10.77;;;6.65;;
30072;SDS011;16897;52.422;13.678;2022-10-31T18:08:17;12.82;;;7.30;;
30072;SDS011;16897;52.422;13.678;2022-10-31T18:12:18;10.65;;;7.35;;
30072;SDS011;16897;52.422;13.678;2022-10-31T18:16:20;9.65;;;7.22;;
30072;SDS011;16897;52.422;13.678;2022-10-31T18:20:22;9.10;;;6.75;;
30072;SDS011;16897;52.422;13.678;2022-10-31T18:24:23;9.55;;;7.57;;
30072;SDS011;16897;52.422;13.678;2022-10-31T18:28:25;7.95;;;6.35;;
30072;SDS011;16897;52.422;13.678;2022-10-31T18:32:26;13.63;;;6.72;;
30072;SDS011;16897;52.422;13.678;2022-10-31T18:36:28;9.63;;;7.30;;
30072;SDS011;16897;52.422;13.678;2022-10-31T18:40:29;11.45;;;7.38;;
30072;SDS011;16897;52.422;13.678;2022-10-31T18:44:32;13.63;;;8.00;;
30072;SDS011;16897;52.422;13.678;2022-10-31T18:48:35;11.18;;;7.35;;
30072;SDS011;16897;52.422;13.678;2022-10-31T18:52:37;10.25;;;7.60;;
30072;SDS011;16897;52.422;13.678;2022-10-31T18:56:38;9.07;;;7.53;;
30072;SDS011;16897;52.422;13.678;2022-10-31T19:00:40;10.73;;;8.32;;
30072;SDS011;16897;52.422;13.678;2022-10-31T19:04:41;15.15;;;9.95;;
30072;SDS011;16897;52.422;13.678;2022-10-31T19:08:43;12.20;;;8.43;;
30072;SDS011;16897;52.422;13.678;2022-10-31T19:12:45;9.18;;;7.88;;
30072;SDS011;16897;52.422;13.678;2022-10-31T19:16:46;12.05;;;8.25;;
30072;SDS011;16897;52.422;13.678;2022-10-31T19:20:48;12.05;;;8.60;;
30072;SDS011;16897;52.422;13.678;2022-10-31T19:24:50;12.75;;;9.13;;
30072;SDS011;16897;52.422;13.678;2022-10-31T19:28:51;11.82;;;8.30;;
30072;SDS011;16897;52.422;13.678;2022-10-31T19:32:54;14.60;;;9.18;;
30072;SDS011;16897;52.422;13.678;2022-10-31T19:36:56;11.23;;;8.77;;
30072;SDS011;16897;52.422;13.678;2022-10-31T19:40:58;12.77;;;9.70;;
30072;SDS011;16897;52.422;13.678;2022-10-31T19:45:03;14.23;;;10.90;;
30072;SDS011;16897;52.422;13.678;2022-10-31T19:49:05;13.60;;;10.50;;
30072;SDS011;16897;52.422;13.678;2022-10-31T19:53:06;15.77;;;10.90;;
30072;SDS011;16897;52.422;13.678;2022-10-31T19:57:09;14.80;;;10.15;;
30072;SDS011;16897;52.422;13.678;2022-10-31T20:01:12;14.23;;;11.20;;
30072;SDS011;16897;52.422;13.678;2022-10-31T20:05:19;13.20;;;10.32;;
30072;SDS011;16897;52.422;13.678;2022-10-31T20:09:21;15.88;;;11.23;;
30072;SDS011;16897;52.422;13.678;2022-10-31T20:13:22;13.93;;;10.38;;
30072;SDS011;16897;52.422;13.678;2022-10-31T20:17:24;15.38;;;11.90;;
30072;SDS011;16897;52.422;13.678;2022-10-31T20:21:27;16.83;;;12.93;;
30072;SDS011;16897;52.422;13.678;2022-10-31T20:25:30;17.88;;;12.52;;
30072;SDS011;16897;52.422;13.678;2022-10-31T20:29:32;18.83;;;12.82;;
30072;SDS011;16897;52.422;13.678;2022-10-31T20:33:34;16.45;;;11.88;;
30072;SDS011;16897;52.422;13.678;2022-10-31T20:37:37;13.57;;;11.38;;
30072;SDS011;16897;52.422;13.678;2022-10-31T20:41:39;14.70;;;11.13;;
30072;SDS011;16897;52.422;13.678;2022-10-31T20:45:41;14.55;;;10.98;;
30072;SDS011;16897;52.422;13.678;2022-10-31T20:49:42;13.93;;;10.68;;
30072;SDS011;16897;52.422;13.678;2022-10-31T20:53:44;15.88;;;11.13;;
30072;SDS011;16897;52.422;13.678;2022-10-31T20:57:46;14.82;;;11.52;;
30072;SDS011;16897;52.422;13.678;2022-10-31T21:01:48;13.02;;;11.20;;
30072;SDS011;16897;52.422;13.678;2022-10-31T21:05:53;16.35;;;12.95;;
30072;SDS011;16897;52.422;13.678;2022-10-31T21:09:59;17.50;;;13.27;;
30072;SDS011;16897;52.422;13.678;2022-10-31T21:14:00;22.95;;;15.60;;
30072;SDS011;16897;52.422;13.678;2022-10-31T21:18:02;18.45;;;12.30;;
30072;SDS011;16897;52.422;13.678;2022-10-31T21:22:04;16.63;;;12.82;;
30072;SDS011;16897;52.422;13.678;2022-10-31T21:26:19;16.23;;;12.10;;
30072;SDS011;16897;52.422;13.678;2022-10-31T21:30:23;15.30;;;12.48;;
30072;SDS011;16897;52.422;13.678;2022-10-31T21:34:24;12.82;;;11.05;;
30072;SDS011;16897;52.422;13.678;2022-10-31T21:38:26;17.50;;;12.90;;
30072;SDS011;16897;52.422;13.678;2022-10-31T21:42:28;20.65;;;13.95;;
30072;SDS011;16897;52.422;13.678;2022-10-31T21:46:30;20.23;;;14.40;;
30072;SDS011;16897;52.422;13.678;2022-10-31T21:50:33;19.00;;;13.48;;
30072;SDS011;16897;52.422;13.678;2022-10-31T21:54:35;19.15;;;13.93;;
30072;SDS011;16897;52.422;13.678;2022-10-31T21:58:37;19.60;;;14.32;;
30072;SDS011;16897;52.422;13.678;2022-10-31T22:02:39;22.13;;;14.60;;
30072;SDS011;16897;52.422;13.678;2022-10-31T22:06:40;21.27;;;15.85;;
30072;SDS011;16897;52.422;13.678;2022-10-31T22:10:42;23.20;;;13.98;;
30072;SDS011;16897;52.422;13.678;2022-10-31T22:14:44;21.08;;;13.98;;
30072;SDS011;16897;52.422;13.678;2022-10-31T22:18:45;20.10;;;14.18;;
30072;SDS011;16897;52.422;13.678;2022-10-31T22:22:48;17.95;;;13.63;;
30072;SDS011;16897;52.422;13.678;2022-10-31T22:26:50;20.88;;;15.25;;
30072;SDS011;16897;52.422;13.678;2022-10-31T22:30:52;20.55;;;15.52;;
30072;SDS011;16897;52.422;13.678;2022-10-31T22:34:54;22.00;;;15.60;;
30072;SDS011;16897;52.422;13.678;2022-10-31T22:38:56;24.20;;;18.48;;
30072;SDS011;16897;52.422;13.678;2022-10-31T22:42:58;22.38;;;17.60;;
30072;SDS011;16897;52.422;13.678;2022-10-31T22:47:00;26.63;;;18.02;;
30072;SDS011;16897;52.422;13.678;2022-10-31T22:51:03;23.85;;;17.10;;
30072;SDS011;16897;52.422;13.678;2022-10-31T22:55:05;26.40;;;15.70;;
30072;SDS011;16897;52.422;13.678;2022-10-31T22:59:10;20.85;;;14.93;;
30072;SDS011;16897;52.422;13.678;2022-10-31T23:07:14;20.67;;;12.35;;
30072;SDS011;16897;52.422;13.678;2022-10-31T23:11:17;21.77;;;13.63;;
30072;SDS011;16897;52.422;13.678;2022-10-31T23:15:23;22.13;;;15.05;;
30072;SDS011;16897;52.422;13.678;2022-10-31T23:19:25;19.38;;;14.25;;
30072;SDS011;16897;52.422;13.678;2022-10-31T23:23:31;21.92;;;13.60;;
30072;SDS011;16897;52.422;13.678;2022-10-31T23:27:35;18.25;;;13.43;;
30072;SDS011;16897;52.422;13.678;2022-10-31T23:31:36;22.67;;;14.93;;
30072;SDS011;16897;52.422;13.678;2022-10-31T23:35:38;22.35;;;14.70;;
30072;SDS011;16897;52.422;13.678;2022-10-31T23:39:39;20.35;;;15.70;;
30072;SDS011;16897;52.422;13.678;2022-10-31T23:43:41;24.40;;;15.55;;
30072;SDS011;16897;52.422;13.678;2022-10-31T23:47:42;23.65;;;14.85;;
30072;SDS011;16897;52.422;13.678;2022-10-31T23:51:44;19.83;;;14.85;;
30072;SDS011;16897;52.422;13.678;2022-10-31T23:55:46;17.92;;;12.98;;
30072;SDS011;16897;52.422;13.678;2022-10-31T23:59:47;18.67;;;13.68;;
